Time;durP1;ratioP1;P1;durP2;ratioP2;P2;SDS_P1;SDS_P2;PMS_P1;PMS_P2;Temp;Humidity;BMP_temperature;BMP_pressure;BME280_temperature;BME280_humidity;BME280_pressure;Samples;Min_cycle;Max_cycle;Signal;HPM_P1;HPM_P2
2024/02/12 17:36:51;;;;;;;7.10;3.90;;;6.30;99.90;;;;;;7469644;19;3071249;-73
2024/02/12 17:39:24;;;;;;;4.93;3.63;;;6.20;99.90;;;;;;7611869;19;20010;-73
2024/02/12 17:41:58;;;;;;;6.38;3.45;;;6.20;99.90;;;;;;7638723;19;20022;-73
2024/02/12 17:44:33;;;;;;;5.32;3.58;;;6.20;99.90;;;;;;7623955;19;20022;-72
2024/02/12 17:47:07;;;;;;;5.57;3.72;;;6.40;99.90;;;;;;7633444;19;20022;-73
2024/02/12 17:49:48;;;;;;;6.78;4.13;;;6.40;99.90;;;;;;7637411;19;20014;-73
2024/02/12 17:52:22;;;;;;;7.05;3.95;;;6.50;99.90;;;;;;7624237;19;20048;-74
2024/02/12 17:54:55;;;;;;;8.40;4.15;;;6.50;99.90;;;;;;7620611;19;20014;-73
2024/02/12 17:57:27;;;;;;;6.35;4.72;;;6.60;99.90;;;;;;7627389;19;20720;-74
2024/02/12 18:00:01;;;;;;;6.43;5.00;;;6.60;99.90;;;;;;7583595;19;20275;-73
2024/02/12 18:02:38;;;;;;;8.07;5.30;;;6.60;99.90;;;;;;7642994;19;20017;-73
2024/02/12 18:05:13;;;;;;;7.60;4.97;;;6.70;99.90;;;;;;7633776;19;20617;-73
2024/02/12 18:07:48;;;;;;;9.88;5.63;;;6.70;99.90;;;;;;7589499;19;20014;-74
2024/02/12 18:10:21;;;;;;;7.20;5.10;;;6.70;99.90;;;;;;7590906;19;20110;-73
2024/02/12 18:12:54;;;;;;;7.07;4.53;;;6.70;99.90;;;;;;7615317;19;20046;-71
2024/02/12 18:15:27;;;;;;;5.38;3.78;;;6.70;99.90;;;;;;7623361;19;20018;-73
2024/02/12 18:18:00;;;;;;;5.97;4.45;;;6.80;99.90;;;;;;7628759;19;20055;-73
2024/02/12 18:20:33;;;;;;;5.18;3.83;;;6.80;99.90;;;;;;7611840;19;20006;-74
2024/02/12 18:23:06;;;;;;;;;;;6.80;99.90;;;;;;7616109;19;20467;-74
2024/02/12 18:25:40;;;;;;;4.90;3.92;;;6.70;99.90;;;;;;7616145;19;20301;-73
2024/02/12 18:28:13;;;;;;;7.55;4.82;;;6.70;99.90;;;;;;7622192;19;20022;-73
2024/02/12 18:30:47;;;;;;;4.90;3.72;;;6.70;99.90;;;;;;7605662;19;20098;-73
2024/02/12 18:33:21;;;;;;;7.80;5.13;;;6.70;99.90;;;;;;7616217;19;20445;-73
2024/02/12 18:35:54;;;;;;;7.38;5.10;;;6.70;99.90;;;;;;7583432;19;20014;-74
2024/02/12 18:38:28;;;;;;;7.32;4.60;;;6.70;99.90;;;;;;7613289;19;20018;-72
2024/02/12 18:41:01;;;;;;;9.57;5.20;;;6.70;99.90;;;;;;7591341;19;20014;-72
2024/02/12 18:43:34;;;;;;;10.37;5.97;;;6.70;99.90;;;;;;7636192;19;20018;-72
2024/02/12 18:46:07;;;;;;;8.25;5.45;;;6.70;99.90;;;;;;7626821;19;20383;-72
2024/02/12 18:48:40;;;;;;;8.50;5.20;;;6.70;99.90;;;;;;7592775;19;20022;-72
2024/02/12 18:51:14;;;;;;;7.43;5.55;;;6.70;99.90;;;;;;7592758;19;20019;-73
2024/02/12 18:53:50;;;;;;;9.00;5.68;;;6.60;99.90;;;;;;7594062;19;20050;-74
2024/02/12 18:56:25;;;;;;;9.50;5.43;;;6.60;99.90;;;;;;7577696;19;20015;-74
2024/02/12 18:58:58;;;;;;;10.25;6.72;;;6.60;99.90;;;;;;7597892;19;20019;-74
2024/02/12 19:01:34;;;;;;;8.25;6.07;;;6.50;99.90;;;;;;7578917;19;20051;-74
2024/02/12 19:04:07;;;;;;;6.47;4.10;;;6.50;99.90;;;;;;7588930;19;20011;-72
2024/02/12 19:06:44;;;;;;;25.35;19.73;;;6.50;99.90;;;;;;7598599;19;20018;-72
2024/02/12 19:09:18;;;;;;;7.45;4.43;;;6.40;99.90;;;;;;7578821;19;20042;-74
2024/02/12 19:11:51;;;;;;;7.20;3.65;;;6.30;99.90;;;;;;7565631;19;20010;-71
2024/02/12 19:14:26;;;;;;;6.13;3.95;;;6.30;99.90;;;;;;7586564;19;20015;-72
2024/02/12 19:17:01;;;;;;;10.70;5.72;;;6.40;99.90;;;;;;7551815;19;20361;-72
2024/02/12 19:19:38;;;;;;;10.18;4.80;;;6.40;99.90;;;;;;7548952;19;20523;-73
2024/02/12 19:22:17;;;;;;;7.00;4.95;;;6.40;99.90;;;;;;7575380;19;20086;-72
2024/02/12 19:24:53;;;;;;;5.50;3.85;;;6.30;99.90;;;;;;7521767;19;21001;-72
2024/02/12 19:27:42;;;;;;;9.48;4.68;;;6.20;99.90;;;;;;7556272;19;20019;-72
2024/02/12 19:30:19;;;;;;;10.95;6.47;;;6.10;99.90;;;;;;7535297;19;20299;-72
2024/02/12 19:33:14;;;;;;;9.77;5.03;;;6.10;99.90;;;;;;7523223;19;20041;-72
2024/02/12 19:35:51;;;;;;;10.10;5.80;;;6.10;99.90;;;;;;7570154;19;20031;-72
2024/02/12 19:38:34;;;;;;;9.82;7.35;;;6.10;99.90;;;;;;7572707;19;20018;-73
2024/02/12 19:41:30;;;;;;;8.23;5.63;;;6.10;99.90;;;;;;7505930;19;20479;-72
2024/02/12 19:44:05;;;;;;;8.63;6.60;;;6.00;99.90;;;;;;7571327;19;20022;-74
2024/02/12 19:46:40;;;;;;;10.13;7.80;;;5.90;99.90;;;;;;7521553;19;20450;-74
2024/02/12 19:49:14;;;;;;;12.45;8.77;;;5.90;99.90;;;;;;7530709;19;20447;-74
2024/02/12 19:51:48;;;;;;;20.00;13.68;;;5.90;99.90;;;;;;7571998;19;20022;-74
2024/02/12 19:54:24;;;;;;;21.23;15.77;;;5.90;99.90;;;;;;7565787;19;20025;-72
2024/02/12 19:56:58;;;;;;;21.65;16.05;;;5.90;99.90;;;;;;7590090;19;20503;-71
2024/02/12 19:59:31;;;;;;;21.13;13.77;;;5.90;99.90;;;;;;7597836;19;21346;-74
2024/02/12 20:02:05;;;;;;;20.27;15.07;;;5.80;99.90;;;;;;7592114;19;20019;-74
2024/02/12 20:04:41;;;;;;;20.02;14.85;;;5.90;99.90;;;;;;7610018;19;20022;-72
2024/02/12 20:07:15;;;;;;;10.57;7.55;;;5.90;99.90;;;;;;7603568;19;20042;-73
2024/02/12 20:09:48;;;;;;;10.55;6.53;;;5.90;99.90;;;;;;7610178;19;20011;-73
2024/02/12 20:12:21;;;;;;;11.00;8.00;;;5.90;99.90;;;;;;7602542;19;20016;-73
2024/02/12 20:14:54;;;;;;;11.90;7.40;;;5.90;99.90;;;;;;7588496;19;20630;-73
2024/02/12 20:17:27;;;;;;;10.85;7.57;;;6.00;99.90;;;;;;7570747;19;20259;-74
2024/02/12 20:20:00;;;;;;;14.27;7.60;;;6.00;99.90;;;;;;7579269;19;20051;-72
2024/02/12 20:22:35;;;;;;;11.45;6.82;;;5.90;99.90;;;;;;7573068;19;20085;-72
2024/02/12 20:25:08;;;;;;;12.38;7.20;;;6.00;99.90;;;;;;7581106;19;20018;-72
2024/02/12 20:27:54;;;;;;;11.70;6.22;;;6.00;99.90;;;;;;7601559;19;20010;-72
2024/02/12 20:30:27;;;;;;;10.52;6.60;;;6.00;99.90;;;;;;7603585;19;20034;-71
2024/02/12 20:33:00;;;;;;;10.75;6.45;;;6.10;99.90;;;;;;7606927;19;20035;-71
2024/02/12 20:35:33;;;;;;;12.97;5.80;;;6.00;99.90;;;;;;7605195;19;20388;-71
2024/02/12 20:38:08;;;;;;;13.00;6.30;;;6.00;99.90;;;;;;7609667;19;20290;-71
2024/02/12 20:40:42;;;;;;;8.23;5.28;;;6.00;99.90;;;;;;7606263;19;20320;-71
2024/02/12 20:43:15;;;;;;;10.63;5.55;;;6.00;99.90;;;;;;7603894;19;20109;-72
2024/02/12 20:45:47;;;;;;;8.25;5.18;;;5.90;99.90;;;;;;7599211;19;20102;-72
2024/02/12 20:48:20;;;;;;;13.33;5.83;;;5.90;99.90;;;;;;7605626;19;20089;-72
2024/02/12 20:50:53;;;;;;;12.43;6.00;;;5.90;99.90;;;;;;7604069;19;20071;-72
2024/02/12 20:53:29;;;;;;;10.23;5.68;;;6.00;99.90;;;;;;7605829;19;20039;-72
2024/02/12 20:56:05;;;;;;;7.40;5.28;;;6.00;99.90;;;;;;7607336;19;20022;-71
2024/02/12 20:58:38;;;;;;;8.25;5.13;;;5.90;99.90;;;;;;7589988;19;20018;-71
2024/02/12 21:01:12;;;;;;;9.45;5.55;;;5.90;99.90;;;;;;7601392;19;20018;-72
2024/02/12 21:03:56;;;;;;;7.50;5.07;;;5.90;99.90;;;;;;7610153;19;20020;-72
2024/02/12 21:06:29;;;;;;;6.60;4.80;;;5.90;99.90;;;;;;7605409;19;20018;-72
2024/02/12 21:09:04;;;;;;;12.43;6.30;;;5.90;99.90;;;;;;7607305;19;20015;-72
2024/02/12 21:11:38;;;;;;;17.08;9.80;;;5.80;99.90;;;;;;7605654;19;20014;-73
2024/02/12 21:14:11;;;;;;;11.73;6.55;;;5.90;99.90;;;;;;7598761;19;20029;-72
2024/02/12 21:16:44;;;;;;;11.02;6.45;;;6.00;99.90;;;;;;7606032;19;20033;-73
2024/02/12 21:19:19;;;;;;;10.35;6.22;;;6.00;99.90;;;;;;7586127;19;20042;-72
2024/02/12 21:21:53;;;;;;;10.68;7.15;;;6.00;99.90;;;;;;7602987;19;20018;-72
2024/02/12 21:24:26;;;;;;;11.68;7.38;;;6.00;99.90;;;;;;7600336;19;20052;-74
2024/02/12 21:26:59;;;;;;;11.67;7.27;;;5.90;99.90;;;;;;7605481;19;20964;-73
2024/02/12 21:29:32;;;;;;;12.55;7.95;;;5.90;99.90;;;;;;7604357;19;20118;-73
2024/02/12 21:32:05;;;;;;;11.93;6.53;;;6.00;99.90;;;;;;7605672;19;20021;-73
2024/02/12 21:34:38;;;;;;;9.02;5.82;;;5.90;99.90;;;;;;7588566;19;20081;-72
2024/02/12 21:37:12;;;;;;;14.68;8.05;;;5.90;99.90;;;;;;7599112;19;20041;-72
2024/02/12 21:39:46;;;;;;;18.45;10.70;;;5.90;99.90;;;;;;7606791;19;21485;-72
2024/02/12 21:42:28;;;;;;;13.63;7.25;;;5.90;99.90;;;;;;7606248;19;20018;-73
2024/02/12 21:45:00;;;;;;;15.10;9.27;;;5.90;99.90;;;;;;7605043;19;20103;-73
2024/02/12 21:47:34;;;;;;;13.10;7.82;;;5.90;99.90;;;;;;7603397;19;20022;-73
2024/02/12 21:50:07;;;;;;;11.63;6.53;;;5.90;99.90;;;;;;7576065;19;20018;-72
2024/02/12 21:52:55;;;;;;;10.15;6.18;;;5.90;99.90;;;;;;7577856;19;20251;-72
2024/02/12 21:55:28;;;;;;;12.52;6.50;;;5.80;99.90;;;;;;7605194;19;20541;-72
